sensor_id;sensor_type;location;lat;lon;timestamp;temperature;humidity
12164;DHT22;6145;50.192;10.064;2022-10-22T11:42:45;18.40;91.30
12164;DHT22;6145;50.192;10.064;2022-10-22T11:45:28;18.50;91.60
12164;DHT22;6145;50.192;10.064;2022-10-22T11:47:58;18.60;91.70
12164;DHT22;6145;50.192;10.064;2022-10-22T11:50:44;18.60;90.70
12164;DHT22;6145;50.192;10.064;2022-10-22T11:53:17;18.80;90.90
12164;DHT22;6145;50.192;10.064;2022-10-22T11:55:46;18.80;90.60
12164;DHT22;6145;50.192;10.064;2022-10-22T11:58:33;18.90;90.10
12164;DHT22;6145;50.192;10.064;2022-10-22T12:01:25;19.00;90.70
12164;DHT22;6145;50.192;10.064;2022-10-22T12:06:54;19.10;90.60
12164;DHT22;6145;50.192;10.064;2022-10-22T12:09:22;19.20;89.60
12164;DHT22;6145;50.192;10.064;2022-10-22T12:11:50;19.30;87.70
12164;DHT22;6145;50.192;10.064;2022-10-22T12:14:21;19.30;86.80
12164;DHT22;6145;50.192;10.064;2022-10-22T12:16:52;19.30;85.30
12164;DHT22;6145;50.192;10.064;2022-10-22T12:19:28;19.40;84.80
12164;DHT22;6145;50.192;10.064;2022-10-22T12:21:58;19.40;86.00
12164;DHT22;6145;50.192;10.064;2022-10-22T12:24:29;19.50;85.50
12164;DHT22;6145;50.192;10.064;2022-10-22T12:26:57;19.80;85.10
12164;DHT22;6145;50.192;10.064;2022-10-22T12:29:25;19.60;83.80
12164;DHT22;6145;50.192;10.064;2022-10-22T12:31:53;19.50;81.70
12164;DHT22;6145;50.192;10.064;2022-10-22T12:34:22;19.70;82.60
12164;DHT22;6145;50.192;10.064;2022-10-22T12:36:51;19.50;82.90
12164;DHT22;6145;50.192;10.064;2022-10-22T12:39:19;19.90;84.20
12164;DHT22;6145;50.192;10.064;2022-10-22T12:41:47;19.60;83.30
12164;DHT22;6145;50.192;10.064;2022-10-22T12:44:15;19.60;83.90
12164;DHT22;6145;50.192;10.064;2022-10-22T12:46:46;19.60;82.10
12164;DHT22;6145;50.192;10.064;2022-10-22T12:49:16;19.60;82.20
12164;DHT22;6145;50.192;10.064;2022-10-22T12:51:45;19.70;81.90
12164;DHT22;6145;50.192;10.064;2022-10-22T12:54:23;19.70;81.00
12164;DHT22;6145;50.192;10.064;2022-10-22T12:56:51;19.70;81.60
12164;DHT22;6145;50.192;10.064;2022-10-22T12:59:21;19.70;80.60
12164;DHT22;6145;50.192;10.064;2022-10-22T13:01:51;19.70;80.80
12164;DHT22;6145;50.192;10.064;2022-10-22T13:04:27;20.00;80.60
12164;DHT22;6145;50.192;10.064;2022-10-22T13:07:05;19.70;81.00
12164;DHT22;6145;50.192;10.064;2022-10-22T13:09:37;19.80;81.80
12164;DHT22;6145;50.192;10.064;2022-10-22T13:12:05;19.70;80.30
12164;DHT22;6145;50.192;10.064;2022-10-22T13:14:34;19.80;81.50
12164;DHT22;6145;50.192;10.064;2022-10-22T13:17:05;19.80;82.10
12164;DHT22;6145;50.192;10.064;2022-10-22T13:19:36;19.90;81.00
12164;DHT22;6145;50.192;10.064;2022-10-22T13:22:04;19.80;80.30
12164;DHT22;6145;50.192;10.064;2022-10-22T13:24:30;20.00;79.50
12164;DHT22;6145;50.192;10.064;2022-10-22T13:27:01;20.10;78.90
12164;DHT22;6145;50.192;10.064;2022-10-22T13:29:28;19.90;79.30
12164;DHT22;6145;50.192;10.064;2022-10-22T13:31:55;20.10;79.80
12164;DHT22;6145;50.192;10.064;2022-10-22T13:34:24;19.90;77.80
12164;DHT22;6145;50.192;10.064;2022-10-22T13:36:51;20.20;77.80
12164;DHT22;6145;50.192;10.064;2022-10-22T13:39:23;19.90;76.20
12164;DHT22;6145;50.192;10.064;2022-10-22T13:41:50;20.00;75.30
12164;DHT22;6145;50.192;10.064;2022-10-22T13:44:17;20.30;75.10
12164;DHT22;6145;50.192;10.064;2022-10-22T13:46:44;19.90;75.70
12164;DHT22;6145;50.192;10.064;2022-10-22T13:49:14;19.90;75.00
12164;DHT22;6145;50.192;10.064;2022-10-22T13:51:42;19.80;75.20
12164;DHT22;6145;50.192;10.064;2022-10-22T13:54:13;19.80;74.80
12164;DHT22;6145;50.192;10.064;2022-10-22T13:56:41;19.70;76.40
12164;DHT22;6145;50.192;10.064;2022-10-22T13:59:08;19.80;77.60
12164;DHT22;6145;50.192;10.064;2022-10-22T14:01:35;20.20;77.80
12164;DHT22;6145;50.192;10.064;2022-10-22T14:04:04;19.70;77.80
12164;DHT22;6145;50.192;10.064;2022-10-22T14:06:32;19.70;77.90
12164;DHT22;6145;50.192;10.064;2022-10-22T14:09:03;19.70;76.50
12164;DHT22;6145;50.192;10.064;2022-10-22T14:11:30;19.90;75.60
12164;DHT22;6145;50.192;10.064;2022-10-22T14:13:57;19.60;75.60
12164;DHT22;6145;50.192;10.064;2022-10-22T14:16:26;19.50;76.30
12164;DHT22;6145;50.192;10.064;2022-10-22T14:18:55;19.50;76.90
12164;DHT22;6145;50.192;10.064;2022-10-22T14:21:23;19.40;75.50
12164;DHT22;6145;50.192;10.064;2022-10-22T14:23:49;19.30;76.30
12164;DHT22;6145;50.192;10.064;2022-10-22T14:26:22;19.30;76.90
12164;DHT22;6145;50.192;10.064;2022-10-22T14:28:49;19.20;77.80
12164;DHT22;6145;50.192;10.064;2022-10-22T14:31:16;19.20;76.90
12164;DHT22;6145;50.192;10.064;2022-10-22T14:33:43;19.40;78.40
12164;DHT22;6145;50.192;10.064;2022-10-22T14:36:12;19.10;76.80
12164;DHT22;6145;50.192;10.064;2022-10-22T14:38:40;19.10;77.00
12164;DHT22;6145;50.192;10.064;2022-10-22T14:41:15;19.10;78.40
12164;DHT22;6145;50.192;10.064;2022-10-22T14:43:45;19.10;77.30
12164;DHT22;6145;50.192;10.064;2022-10-22T14:46:13;19.00;76.90
12164;DHT22;6145;50.192;10.064;2022-10-22T14:48:40;19.40;78.50
12164;DHT22;6145;50.192;10.064;2022-10-22T14:51:11;19.30;76.30
12164;DHT22;6145;50.192;10.064;2022-10-22T14:53:38;19.10;75.80
12164;DHT22;6145;50.192;10.064;2022-10-22T14:56:05;19.10;76.20
12164;DHT22;6145;50.192;10.064;2022-10-22T14:58:32;18.90;77.40
12164;DHT22;6145;50.192;10.064;2022-10-22T15:01:02;19.10;78.20
12164;DHT22;6145;50.192;10.064;2022-10-22T15:03:30;19.20;78.90
12164;DHT22;6145;50.192;10.064;2022-10-22T15:05:57;18.90;79.00
12164;DHT22;6145;50.192;10.064;2022-10-22T15:08:25;18.90;78.40
12164;DHT22;6145;50.192;10.064;2022-10-22T15:10:59;19.40;78.40
12164;DHT22;6145;50.192;10.064;2022-10-22T15:13:26;18.90;77.70
12164;DHT22;6145;50.192;10.064;2022-10-22T15:15:53;18.90;78.10
12164;DHT22;6145;50.192;10.064;2022-10-22T15:18:22;18.90;79.70
12164;DHT22;6145;50.192;10.064;2022-10-22T15:20:56;18.90;79.10
12164;DHT22;6145;50.192;10.064;2022-10-22T15:23:23;18.90;79.40
12164;DHT22;6145;50.192;10.064;2022-10-22T15:25:50;18.80;80.20
12164;DHT22;6145;50.192;10.064;2022-10-22T15:28:17;18.80;81.50
12164;DHT22;6145;50.192;10.064;2022-10-22T15:30:44;18.80;82.20
12164;DHT22;6145;50.192;10.064;2022-10-22T15:33:10;18.90;82.70
12164;DHT22;6145;50.192;10.064;2022-10-22T15:35:39;19.00;82.20
12164;DHT22;6145;50.192;10.064;2022-10-22T15:38:05;18.80;82.60
12164;DHT22;6145;50.192;10.064;2022-10-22T15:40:33;18.70;82.50
12164;DHT22;6145;50.192;10.064;2022-10-22T15:43:00;18.70;82.20
12164;DHT22;6145;50.192;10.064;2022-10-22T15:45:27;18.70;82.50
12164;DHT22;6145;50.192;10.064;2022-10-22T15:47:54;19.00;83.60
12164;DHT22;6145;50.192;10.064;2022-10-22T15:50:21;18.80;83.80
12164;DHT22;6145;50.192;10.064;2022-10-22T15:52:49;18.60;84.10
12164;DHT22;6145;50.192;10.064;2022-10-22T15:55:16;18.50;84.20
12164;DHT22;6145;50.192;10.064;2022-10-22T15:57:43;18.50;84.60
12164;DHT22;6145;50.192;10.064;2022-10-22T16:00:11;18.20;84.70
12164;DHT22;6145;50.192;10.064;2022-10-22T16:02:38;18.40;85.20
12164;DHT22;6145;50.192;10.064;2022-10-22T16:05:06;18.30;85.60
12164;DHT22;6145;50.192;10.064;2022-10-22T16:07:33;18.30;85.50
12164;DHT22;6145;50.192;10.064;2022-10-22T16:10:01;18.30;85.40
12164;DHT22;6145;50.192;10.064;2022-10-22T16:12:28;18.20;86.00
12164;DHT22;6145;50.192;10.064;2022-10-22T16:14:55;18.20;85.90
12164;DHT22;6145;50.192;10.064;2022-10-22T16:17:22;18.10;86.20
12164;DHT22;6145;50.192;10.064;2022-10-22T16:19:49;18.10;86.50
12164;DHT22;6145;50.192;10.064;2022-10-22T16:22:15;18.00;86.60
12164;DHT22;6145;50.192;10.064;2022-10-22T16:24:42;17.90;87.30
12164;DHT22;6145;50.192;10.064;2022-10-22T16:27:10;17.90;86.90
12164;DHT22;6145;50.192;10.064;2022-10-22T16:29:37;17.80;86.90
12164;DHT22;6145;50.192;10.064;2022-10-22T16:32:05;17.70;87.00
12164;DHT22;6145;50.192;10.064;2022-10-22T16:34:32;17.70;87.20
12164;DHT22;6145;50.192;10.064;2022-10-22T16:36:58;17.60;87.00
12164;DHT22;6145;50.192;10.064;2022-10-22T16:39:25;17.50;87.10
12164;DHT22;6145;50.192;10.064;2022-10-22T16:41:52;17.50;87.30
12164;DHT22;6145;50.192;10.064;2022-10-22T16:44:20;17.40;87.40
12164;DHT22;6145;50.192;10.064;2022-10-22T16:46:48;17.90;88.10
12164;DHT22;6145;50.192;10.064;2022-10-22T16:49:14;17.30;87.70
12164;DHT22;6145;50.192;10.064;2022-10-22T16:51:41;17.70;88.30
12164;DHT22;6145;50.192;10.064;2022-10-22T16:54:10;17.30;88.10
12164;DHT22;6145;50.192;10.064;2022-10-22T16:56:38;17.40;88.30
12164;DHT22;6145;50.192;10.064;2022-10-22T16:59:05;17.00;88.10
12164;DHT22;6145;50.192;10.064;2022-10-22T17:01:33;17.00;88.10
12164;DHT22;6145;50.192;10.064;2022-10-22T17:04:00;16.90;88.20
12164;DHT22;6145;50.192;10.064;2022-10-22T17:06:27;16.80;88.40
12164;DHT22;6145;50.192;10.064;2022-10-22T17:08:54;17.00;88.90
12164;DHT22;6145;50.192;10.064;2022-10-22T17:11:22;16.70;88.70
12164;DHT22;6145;50.192;10.064;2022-10-22T17:13:51;16.70;88.80
12164;DHT22;6145;50.192;10.064;2022-10-22T17:16:20;16.50;88.80
12164;DHT22;6145;50.192;10.064;2022-10-22T17:18:49;16.50;88.90
12164;DHT22;6145;50.192;10.064;2022-10-22T17:21:16;16.60;89.20
12164;DHT22;6145;50.192;10.064;2022-10-22T17:23:44;16.40;88.90
12164;DHT22;6145;50.192;10.064;2022-10-22T17:26:14;16.30;89.00
12164;DHT22;6145;50.192;10.064;2022-10-22T17:28:41;16.30;89.20
12164;DHT22;6145;50.192;10.064;2022-10-22T17:31:10;16.20;88.90
12164;DHT22;6145;50.192;10.064;2022-10-22T17:33:40;16.40;89.50
12164;DHT22;6145;50.192;10.064;2022-10-22T17:36:09;16.50;89.70
12164;DHT22;6145;50.192;10.064;2022-10-22T17:38:38;16.10;89.30
12164;DHT22;6145;50.192;10.064;2022-10-22T17:41:05;16.40;89.80
12164;DHT22;6145;50.192;10.064;2022-10-22T17:43:32;16.00;89.50
12164;DHT22;6145;50.192;10.064;2022-10-22T17:46:04;16.00;89.70
12164;DHT22;6145;50.192;10.064;2022-10-22T17:48:32;15.90;89.50
12164;DHT22;6145;50.192;10.064;2022-10-22T17:50:58;15.80;89.60
12164;DHT22;6145;50.192;10.064;2022-10-22T17:53:26;15.80;89.80
12164;DHT22;6145;50.192;10.064;2022-10-22T17:56:01;16.30;90.10
12164;DHT22;6145;50.192;10.064;2022-10-22T17:58:29;15.70;89.80
12164;DHT22;6145;50.192;10.064;2022-10-22T18:00:56;15.60;89.50
12164;DHT22;6145;50.192;10.064;2022-10-22T18:03:23;15.60;89.90
12164;DHT22;6145;50.192;10.064;2022-10-22T18:05:52;15.50;89.70
12164;DHT22;6145;50.192;10.064;2022-10-22T18:08:19;15.50;90.00
12164;DHT22;6145;50.192;10.064;2022-10-22T18:10:49;15.50;90.10
12164;DHT22;6145;50.192;10.064;2022-10-22T18:13:15;15.40;90.00
12164;DHT22;6145;50.192;10.064;2022-10-22T18:15:42;15.30;90.00
12164;DHT22;6145;50.192;10.064;2022-10-22T18:18:09;15.30;90.00
12164;DHT22;6145;50.192;10.064;2022-10-22T18:20:36;15.30;90.00
12164;DHT22;6145;50.192;10.064;2022-10-22T18:23:03;15.20;90.00
12164;DHT22;6145;50.192;10.064;2022-10-22T18:25:29;15.20;90.00
12164;DHT22;6145;50.192;10.064;2022-10-22T18:27:58;15.20;90.10
12164;DHT22;6145;50.192;10.064;2022-10-22T18:30:25;15.10;90.10
12164;DHT22;6145;50.192;10.064;2022-10-22T18:32:51;15.10;90.10
12164;DHT22;6145;50.192;10.064;2022-10-22T18:35:18;15.10;90.40
12164;DHT22;6145;50.192;10.064;2022-10-22T18:37:45;15.20;90.30
12164;DHT22;6145;50.192;10.064;2022-10-22T18:40:12;15.00;90.20
12164;DHT22;6145;50.192;10.064;2022-10-22T18:42:39;15.30;90.30
12164;DHT22;6145;50.192;10.064;2022-10-22T18:45:08;14.90;90.10
12164;DHT22;6145;50.192;10.064;2022-10-22T18:47:38;14.90;90.10
12164;DHT22;6145;50.192;10.064;2022-10-22T18:50:06;14.80;90.10
12164;DHT22;6145;50.192;10.064;2022-10-22T18:52:33;14.80;90.20
12164;DHT22;6145;50.192;10.064;2022-10-22T18:55:00;15.00;90.30
12164;DHT22;6145;50.192;10.064;2022-10-22T18:57:27;14.70;90.20
12164;DHT22;6145;50.192;10.064;2022-10-22T18:59:54;15.90;90.70
12164;DHT22;6145;50.192;10.064;2022-10-22T19:02:22;14.70;90.20
12164;DHT22;6145;50.192;10.064;2022-10-22T19:04:49;15.30;90.40
12164;DHT22;6145;50.192;10.064;2022-10-22T19:07:16;14.80;90.20
12164;DHT22;6145;50.192;10.064;2022-10-22T19:09:42;14.70;90.20
12164;DHT22;6145;50.192;10.064;2022-10-22T19:12:09;14.50;90.20
12164;DHT22;6145;50.192;10.064;2022-10-22T19:14:39;14.50;90.20
12164;DHT22;6145;50.192;10.064;2022-10-22T19:17:07;14.40;90.20
12164;DHT22;6145;50.192;10.064;2022-10-22T19:19:35;14.40;90.30
12164;DHT22;6145;50.192;10.064;2022-10-22T19:22:01;14.40;90.30
12164;DHT22;6145;50.192;10.064;2022-10-22T19:24:29;14.30;90.10
12164;DHT22;6145;50.192;10.064;2022-10-22T19:26:55;14.70;90.40
12164;DHT22;6145;50.192;10.064;2022-10-22T19:29:22;14.30;90.20
12164;DHT22;6145;50.192;10.064;2022-10-22T19:31:49;14.20;90.20
12164;DHT22;6145;50.192;10.064;2022-10-22T19:34:16;14.20;90.30
12164;DHT22;6145;50.192;10.064;2022-10-22T19:36:45;15.10;90.70
12164;DHT22;6145;50.192;10.064;2022-10-22T19:39:14;14.30;90.30
12164;DHT22;6145;50.192;10.064;2022-10-22T19:41:41;14.10;90.00
12164;DHT22;6145;50.192;10.064;2022-10-22T19:44:09;14.10;90.20
12164;DHT22;6145;50.192;10.064;2022-10-22T19:46:35;14.20;90.20
12164;DHT22;6145;50.192;10.064;2022-10-22T19:49:03;14.30;90.30
12164;DHT22;6145;50.192;10.064;2022-10-22T19:51:31;14.00;90.20
12164;DHT22;6145;50.192;10.064;2022-10-22T19:54:02;13.90;90.20
12164;DHT22;6145;50.192;10.064;2022-10-22T19:56:29;13.90;90.30
12164;DHT22;6145;50.192;10.064;2022-10-22T19:58:57;13.90;90.30
12164;DHT22;6145;50.192;10.064;2022-10-22T20:01:24;13.80;90.30
12164;DHT22;6145;50.192;10.064;2022-10-22T20:03:51;13.80;90.30
12164;DHT22;6145;50.192;10.064;2022-10-22T20:06:19;13.80;90.20
12164;DHT22;6145;50.192;10.064;2022-10-22T20:08:46;14.00;90.30
12164;DHT22;6145;50.192;10.064;2022-10-22T20:11:21;13.70;90.20
12164;DHT22;6145;50.192;10.064;2022-10-22T20:13:48;13.60;90.30
12164;DHT22;6145;50.192;10.064;2022-10-22T20:16:16;14.00;90.40
12164;DHT22;6145;50.192;10.064;2022-10-22T20:18:44;13.60;90.30
12164;DHT22;6145;50.192;10.064;2022-10-22T20:21:13;13.60;90.30
12164;DHT22;6145;50.192;10.064;2022-10-22T20:23:40;13.50;90.30
12164;DHT22;6145;50.192;10.064;2022-10-22T20:26:08;13.40;90.30
12164;DHT22;6145;50.192;10.064;2022-10-22T20:28:36;13.50;90.40
12164;DHT22;6145;50.192;10.064;2022-10-22T20:31:07;13.50;90.50
12164;DHT22;6145;50.192;10.064;2022-10-22T20:33:34;13.40;90.50
12164;DHT22;6145;50.192;10.064;2022-10-22T20:36:03;13.40;90.50
12164;DHT22;6145;50.192;10.064;2022-10-22T20:38:30;13.40;90.50
12164;DHT22;6145;50.192;10.064;2022-10-22T20:40:59;13.40;90.50
12164;DHT22;6145;50.192;10.064;2022-10-22T20:43:25;13.30;90.50
12164;DHT22;6145;50.192;10.064;2022-10-22T20:45:54;13.30;90.50
12164;DHT22;6145;50.192;10.064;2022-10-22T20:48:21;13.30;90.50
12164;DHT22;6145;50.192;10.064;2022-10-22T20:50:51;13.30;90.50
12164;DHT22;6145;50.192;10.064;2022-10-22T20:53:18;13.30;90.50
12164;DHT22;6145;50.192;10.064;2022-10-22T20:55:44;13.30;90.60
12164;DHT22;6145;50.192;10.064;2022-10-22T20:58:11;13.20;90.50
12164;DHT22;6145;50.192;10.064;2022-10-22T21:00:38;13.20;90.50
12164;DHT22;6145;50.192;10.064;2022-10-22T21:03:06;13.20;90.50
12164;DHT22;6145;50.192;10.064;2022-10-22T21:05:36;13.20;90.60
12164;DHT22;6145;50.192;10.064;2022-10-22T21:08:03;15.00;91.50
12164;DHT22;6145;50.192;10.064;2022-10-22T21:10:30;13.10;90.60
12164;DHT22;6145;50.192;10.064;2022-10-22T21:12:57;13.10;90.60
12164;DHT22;6145;50.192;10.064;2022-10-22T21:15:26;13.10;90.70
12164;DHT22;6145;50.192;10.064;2022-10-22T21:17:53;13.10;90.70
12164;DHT22;6145;50.192;10.064;2022-10-22T21:20:21;13.10;90.80
12164;DHT22;6145;50.192;10.064;2022-10-22T21:22:48;13.00;90.80
12164;DHT22;6145;50.192;10.064;2022-10-22T21:25:15;13.40;91.00
12164;DHT22;6145;50.192;10.064;2022-10-22T21:27:42;13.00;90.80
12164;DHT22;6145;50.192;10.064;2022-10-22T21:30:09;13.40;91.10
12164;DHT22;6145;50.192;10.064;2022-10-22T21:32:36;13.00;90.90
12164;DHT22;6145;50.192;10.064;2022-10-22T21:35:03;13.00;91.00
12164;DHT22;6145;50.192;10.064;2022-10-22T21:37:40;13.00;91.00
12164;DHT22;6145;50.192;10.064;2022-10-22T21:40:21;13.00;91.00
12164;DHT22;6145;50.192;10.064;2022-10-22T21:42:48;12.90;91.00
12164;DHT22;6145;50.192;10.064;2022-10-22T21:45:15;13.00;91.10
12164;DHT22;6145;50.192;10.064;2022-10-22T21:47:42;12.90;91.00
12164;DHT22;6145;50.192;10.064;2022-10-22T21:50:09;12.90;91.10
12164;DHT22;6145;50.192;10.064;2022-10-22T21:52:37;14.30;91.70
12164;DHT22;6145;50.192;10.064;2022-10-22T21:55:05;12.90;91.20
12164;DHT22;6145;50.192;10.064;2022-10-22T21:57:31;12.90;91.20
12164;DHT22;6145;50.192;10.064;2022-10-22T21:59:58;12.90;91.20
12164;DHT22;6145;50.192;10.064;2022-10-22T22:02:25;12.90;91.30
12164;DHT22;6145;50.192;10.064;2022-10-22T22:04:53;12.90;91.30
12164;DHT22;6145;50.192;10.064;2022-10-22T22:07:20;12.90;91.30
12164;DHT22;6145;50.192;10.064;2022-10-22T22:09:49;12.80;91.30
12164;DHT22;6145;50.192;10.064;2022-10-22T22:12:17;12.90;91.40
12164;DHT22;6145;50.192;10.064;2022-10-22T22:14:45;12.80;91.30
12164;DHT22;6145;50.192;10.064;2022-10-22T22:17:11;12.80;91.40
12164;DHT22;6145;50.192;10.064;2022-10-22T22:19:38;12.80;91.40
12164;DHT22;6145;50.192;10.064;2022-10-22T22:22:05;12.80;91.50
12164;DHT22;6145;50.192;10.064;2022-10-22T22:24:32;13.30;91.80
12164;DHT22;6145;50.192;10.064;2022-10-22T22:27:01;12.90;91.60
12164;DHT22;6145;50.192;10.064;2022-10-22T22:29:27;12.80;91.50
12164;DHT22;6145;50.192;10.064;2022-10-22T22:31:54;12.80;91.60
12164;DHT22;6145;50.192;10.064;2022-10-22T22:34:21;12.80;91.60
12164;DHT22;6145;50.192;10.064;2022-10-22T22:36:48;13.20;91.80
12164;DHT22;6145;50.192;10.064;2022-10-22T22:39:17;12.80;91.70
12164;DHT22;6145;50.192;10.064;2022-10-22T22:41:44;12.80;91.60
12164;DHT22;6145;50.192;10.064;2022-10-22T22:44:13;13.30;91.90
12164;DHT22;6145;50.192;10.064;2022-10-22T22:46:40;12.80;91.70
12164;DHT22;6145;50.192;10.064;2022-10-22T22:49:07;12.80;91.70
12164;DHT22;6145;50.192;10.064;2022-10-22T22:51:33;12.80;91.80
12164;DHT22;6145;50.192;10.064;2022-10-22T22:54:00;12.80;91.70
12164;DHT22;6145;50.192;10.064;2022-10-22T22:56:29;13.30;92.00
12164;DHT22;6145;50.192;10.064;2022-10-22T22:58:56;12.80;91.80
12164;DHT22;6145;50.192;10.064;2022-10-22T23:01:26;12.80;91.70
12164;DHT22;6145;50.192;10.064;2022-10-22T23:03:55;12.80;91.80
12164;DHT22;6145;50.192;10.064;2022-10-22T23:06:23;12.80;91.80
12164;DHT22;6145;50.192;10.064;2022-10-22T23:08:51;12.80;91.80
12164;DHT22;6145;50.192;10.064;2022-10-22T23:11:19;12.70;91.80
12164;DHT22;6145;50.192;10.064;2022-10-22T23:13:47;12.70;91.80
12164;DHT22;6145;50.192;10.064;2022-10-22T23:16:18;12.70;91.80
12164;DHT22;6145;50.192;10.064;2022-10-22T23:18:47;12.70;91.90
12164;DHT22;6145;50.192;10.064;2022-10-22T23:21:16;12.80;91.90
12164;DHT22;6145;50.192;10.064;2022-10-22T23:23:44;12.70;91.90
12164;DHT22;6145;50.192;10.064;2022-10-22T23:26:13;12.70;91.90
12164;DHT22;6145;50.192;10.064;2022-10-22T23:28:40;12.90;92.00
12164;DHT22;6145;50.192;10.064;2022-10-22T23:31:08;12.70;91.90
12164;DHT22;6145;50.192;10.064;2022-10-22T23:33:36;12.70;91.90
12164;DHT22;6145;50.192;10.064;2022-10-22T23:36:04;12.70;91.90
12164;DHT22;6145;50.192;10.064;2022-10-22T23:38:32;12.60;91.90
12164;DHT22;6145;50.192;10.064;2022-10-22T23:40:59;12.60;91.90
12164;DHT22;6145;50.192;10.064;2022-10-22T23:43:26;12.60;91.90
12164;DHT22;6145;50.192;10.064;2022-10-22T23:45:53;12.60;91.90
12164;DHT22;6145;50.192;10.064;2022-10-22T23:48:20;12.60;91.90
12164;DHT22;6145;50.192;10.064;2022-10-22T23:50:47;12.90;92.10
12164;DHT22;6145;50.192;10.064;2022-10-22T23:53:16;12.60;92.00
12164;DHT22;6145;50.192;10.064;2022-10-22T23:55:43;12.60;91.90
12164;DHT22;6145;50.192;10.064;2022-10-22T23:58:10;12.60;92.00
